sensor_id;sensor_type;location;lat;lon;timestamp;P1;durP1;ratioP1;P2;durP2;ratioP2
70150;SDS011;57517;43.562;19.540;2022-10-22T00:00:35;28.48;;;20.02;;
70150;SDS011;57517;43.562;19.540;2022-10-22T00:03:01;29.77;;;21.30;;
70150;SDS011;57517;43.562;19.540;2022-10-22T00:05:27;28.15;;;18.98;;
70150;SDS011;57517;43.562;19.540;2022-10-22T00:07:53;26.00;;;18.85;;
70150;SDS011;57517;43.562;19.540;2022-10-22T00:10:18;29.77;;;19.52;;
70150;SDS011;57517;43.562;19.540;2022-10-22T00:12:44;27.70;;;20.30;;
70150;SDS011;57517;43.562;19.540;2022-10-22T00:15:10;26.35;;;18.35;;
70150;SDS011;57517;43.562;19.540;2022-10-22T00:17:36;24.95;;;17.65;;
70150;SDS011;57517;43.562;19.540;2022-10-22T00:20:03;25.25;;;18.33;;
70150;SDS011;57517;43.562;19.540;2022-10-22T00:22:29;18.48;;;15.63;;
70150;SDS011;57517;43.562;19.540;2022-10-22T00:24:55;29.58;;;16.17;;
70150;SDS011;57517;43.562;19.540;2022-10-22T00:27:20;20.88;;;15.95;;
70150;SDS011;57517;43.562;19.540;2022-10-22T00:29:46;22.15;;;15.48;;
70150;SDS011;57517;43.562;19.540;2022-10-22T00:32:13;19.83;;;15.55;;
70150;SDS011;57517;43.562;19.540;2022-10-22T00:34:39;27.65;;;18.05;;
70150;SDS011;57517;43.562;19.540;2022-10-22T00:37:05;27.40;;;19.75;;
70150;SDS011;57517;43.562;19.540;2022-10-22T00:39:31;26.75;;;18.63;;
70150;SDS011;57517;43.562;19.540;2022-10-22T00:41:57;34.70;;;22.25;;
70150;SDS011;57517;43.562;19.540;2022-10-22T00:47:27;27.30;;;19.00;;
70150;SDS011;57517;43.562;19.540;2022-10-22T00:49:57;30.73;;;22.65;;
70150;SDS011;57517;43.562;19.540;2022-10-22T00:52:24;29.83;;;23.17;;
70150;SDS011;57517;43.562;19.540;2022-10-22T00:54:50;31.58;;;22.67;;
70150;SDS011;57517;43.562;19.540;2022-10-22T00:57:17;28.75;;;21.17;;
70150;SDS011;57517;43.562;19.540;2022-10-22T00:59:44;29.98;;;20.63;;
70150;SDS011;57517;43.562;19.540;2022-10-22T01:02:11;30.95;;;21.13;;
70150;SDS011;57517;43.562;19.540;2022-10-22T01:04:36;30.30;;;21.27;;
70150;SDS011;57517;43.562;19.540;2022-10-22T01:07:02;28.23;;;21.42;;
70150;SDS011;57517;43.562;19.540;2022-10-22T01:12:11;31.35;;;22.55;;
70150;SDS011;57517;43.562;19.540;2022-10-22T01:26:05;30.70;;;21.48;;
70150;SDS011;57517;43.562;19.540;2022-10-22T01:31:20;33.90;;;22.77;;
70150;SDS011;57517;43.562;19.540;2022-10-22T01:33:48;30.05;;;23.13;;
70150;SDS011;57517;43.562;19.540;2022-10-22T01:36:15;31.98;;;24.55;;
70150;SDS011;57517;43.562;19.540;2022-10-22T01:38:42;36.72;;;26.98;;
70150;SDS011;57517;43.562;19.540;2022-10-22T01:41:10;40.83;;;26.63;;
70150;SDS011;57517;43.562;19.540;2022-10-22T01:43:36;30.92;;;23.40;;
70150;SDS011;57517;43.562;19.540;2022-10-22T01:46:02;26.65;;;19.55;;
70150;SDS011;57517;43.562;19.540;2022-10-22T02:07:50;23.90;;;18.50;;
70150;SDS011;57517;43.562;19.540;2022-10-22T02:10:19;24.95;;;18.48;;
70150;SDS011;57517;43.562;19.540;2022-10-22T02:12:47;24.95;;;16.83;;
70150;SDS011;57517;43.562;19.540;2022-10-22T02:15:16;24.48;;;18.60;;
70150;SDS011;57517;43.562;19.540;2022-10-22T02:17:44;26.00;;;18.27;;
70150;SDS011;57517;43.562;19.540;2022-10-22T02:20:15;24.75;;;17.15;;
70150;SDS011;57517;43.562;19.540;2022-10-22T02:22:44;27.55;;;17.63;;
70150;SDS011;57517;43.562;19.540;2022-10-22T02:25:12;24.23;;;18.25;;
70150;SDS011;57517;43.562;19.540;2022-10-22T02:27:48;24.67;;;17.75;;
70150;SDS011;57517;43.562;19.540;2022-10-22T02:30:37;25.52;;;17.80;;
70150;SDS011;57517;43.562;19.540;2022-10-22T02:33:10;23.73;;;17.77;;
70150;SDS011;57517;43.562;19.540;2022-10-22T02:35:43;22.60;;;16.88;;
70150;SDS011;57517;43.562;19.540;2022-10-22T02:38:10;29.75;;;18.35;;
70150;SDS011;57517;43.562;19.540;2022-10-22T02:40:37;22.42;;;17.23;;
70150;SDS011;57517;43.562;19.540;2022-10-22T02:43:04;23.35;;;18.05;;
70150;SDS011;57517;43.562;19.540;2022-10-22T02:45:30;27.50;;;18.98;;
70150;SDS011;57517;43.562;19.540;2022-10-22T02:47:57;22.55;;;17.65;;
70150;SDS011;57517;43.562;19.540;2022-10-22T02:50:23;23.70;;;18.20;;
70150;SDS011;57517;43.562;19.540;2022-10-22T02:52:49;26.27;;;19.02;;
70150;SDS011;57517;43.562;19.540;2022-10-22T02:55:15;20.77;;;16.85;;
70150;SDS011;57517;43.562;19.540;2022-10-22T02:57:41;22.00;;;17.42;;
70150;SDS011;57517;43.562;19.540;2022-10-22T03:00:08;22.10;;;17.60;;
70150;SDS011;57517;43.562;19.540;2022-10-22T03:02:35;24.75;;;18.52;;
70150;SDS011;57517;43.562;19.540;2022-10-22T03:05:01;26.08;;;18.15;;
70150;SDS011;57517;43.562;19.540;2022-10-22T03:07:27;22.00;;;17.52;;
70150;SDS011;57517;43.562;19.540;2022-10-22T03:09:52;23.13;;;16.85;;
70150;SDS011;57517;43.562;19.540;2022-10-22T03:12:18;23.83;;;17.63;;
70150;SDS011;57517;43.562;19.540;2022-10-22T03:14:44;26.05;;;18.17;;
70150;SDS011;57517;43.562;19.540;2022-10-22T03:17:10;26.38;;;18.95;;
70150;SDS011;57517;43.562;19.540;2022-10-22T03:19:35;22.25;;;17.58;;
70150;SDS011;57517;43.562;19.540;2022-10-22T03:22:03;28.75;;;19.15;;
70150;SDS011;57517;43.562;19.540;2022-10-22T03:24:35;26.50;;;20.33;;
70150;SDS011;57517;43.562;19.540;2022-10-22T03:27:04;30.48;;;22.10;;
70150;SDS011;57517;43.562;19.540;2022-10-22T03:29:30;30.85;;;22.65;;
70150;SDS011;57517;43.562;19.540;2022-10-22T03:32:00;28.67;;;20.90;;
70150;SDS011;57517;43.562;19.540;2022-10-22T03:34:25;28.70;;;22.15;;
70150;SDS011;57517;43.562;19.540;2022-10-22T03:36:51;27.80;;;18.98;;
70150;SDS011;57517;43.562;19.540;2022-10-22T03:39:18;29.98;;;17.95;;
70150;SDS011;57517;43.562;19.540;2022-10-22T03:41:46;22.80;;;16.48;;
70150;SDS011;57517;43.562;19.540;2022-10-22T03:44:14;23.83;;;17.90;;
70150;SDS011;57517;43.562;19.540;2022-10-22T03:46:40;25.38;;;18.73;;
70150;SDS011;57517;43.562;19.540;2022-10-22T03:49:06;27.92;;;20.25;;
70150;SDS011;57517;43.562;19.540;2022-10-22T03:51:32;26.85;;;19.98;;
70150;SDS011;57517;43.562;19.540;2022-10-22T03:53:58;24.70;;;17.95;;
70150;SDS011;57517;43.562;19.540;2022-10-22T03:56:24;24.95;;;17.60;;
70150;SDS011;57517;43.562;19.540;2022-10-22T03:58:49;25.80;;;17.55;;
70150;SDS011;57517;43.562;19.540;2022-10-22T04:01:15;25.35;;;18.52;;
70150;SDS011;57517;43.562;19.540;2022-10-22T04:03:41;21.85;;;16.92;;
70150;SDS011;57517;43.562;19.540;2022-10-22T04:06:08;27.65;;;19.63;;
70150;SDS011;57517;43.562;19.540;2022-10-22T04:08:39;28.17;;;19.25;;
70150;SDS011;57517;43.562;19.540;2022-10-22T04:11:06;26.00;;;17.92;;
70150;SDS011;57517;43.562;19.540;2022-10-22T04:13:32;25.38;;;18.92;;
70150;SDS011;57517;43.562;19.540;2022-10-22T04:18:44;25.85;;;18.42;;
70150;SDS011;57517;43.562;19.540;2022-10-22T04:21:12;23.35;;;17.58;;
70150;SDS011;57517;43.562;19.540;2022-10-22T04:23:43;24.52;;;17.50;;
70150;SDS011;57517;43.562;19.540;2022-10-22T04:26:13;30.80;;;19.40;;
70150;SDS011;57517;43.562;19.540;2022-10-22T04:28:40;24.23;;;17.67;;
70150;SDS011;57517;43.562;19.540;2022-10-22T04:31:10;26.13;;;18.15;;
70150;SDS011;57517;43.562;19.540;2022-10-22T04:33:39;24.90;;;18.77;;
70150;SDS011;57517;43.562;19.540;2022-10-22T04:36:08;25.30;;;18.63;;
70150;SDS011;57517;43.562;19.540;2022-10-22T04:38:36;28.40;;;19.45;;
70150;SDS011;57517;43.562;19.540;2022-10-22T04:41:09;26.00;;;18.33;;
70150;SDS011;57517;43.562;19.540;2022-10-22T04:43:35;23.27;;;18.08;;
70150;SDS011;57517;43.562;19.540;2022-10-22T04:46:01;28.15;;;19.48;;
70150;SDS011;57517;43.562;19.540;2022-10-22T04:48:27;26.15;;;19.30;;
70150;SDS011;57517;43.562;19.540;2022-10-22T04:50:53;23.83;;;18.52;;
70150;SDS011;57517;43.562;19.540;2022-10-22T04:53:20;28.98;;;20.50;;
70150;SDS011;57517;43.562;19.540;2022-10-22T04:55:46;27.85;;;20.17;;
70150;SDS011;57517;43.562;19.540;2022-10-22T04:58:12;28.70;;;20.25;;
70150;SDS011;57517;43.562;19.540;2022-10-22T05:00:37;27.23;;;19.30;;
70150;SDS011;57517;43.562;19.540;2022-10-22T05:03:03;28.20;;;19.67;;
70150;SDS011;57517;43.562;19.540;2022-10-22T05:05:29;28.98;;;21.05;;
70150;SDS011;57517;43.562;19.540;2022-10-22T05:07:55;30.92;;;20.10;;
70150;SDS011;57517;43.562;19.540;2022-10-22T05:10:20;31.08;;;21.70;;
70150;SDS011;57517;43.562;19.540;2022-10-22T05:12:46;30.75;;;22.63;;
70150;SDS011;57517;43.562;19.540;2022-10-22T05:15:12;30.95;;;21.85;;
70150;SDS011;57517;43.562;19.540;2022-10-22T05:17:38;26.15;;;20.13;;
70150;SDS011;57517;43.562;19.540;2022-10-22T05:20:04;30.70;;;22.23;;
70150;SDS011;57517;43.562;19.540;2022-10-22T05:22:30;28.50;;;22.33;;
70150;SDS011;57517;43.562;19.540;2022-10-22T05:24:57;28.48;;;22.10;;
70150;SDS011;57517;43.562;19.540;2022-10-22T05:27:23;31.38;;;23.38;;
70150;SDS011;57517;43.562;19.540;2022-10-22T05:29:49;30.13;;;22.85;;
70150;SDS011;57517;43.562;19.540;2022-10-22T05:32:15;29.42;;;22.20;;
70150;SDS011;57517;43.562;19.540;2022-10-22T05:34:41;30.67;;;22.35;;
70150;SDS011;57517;43.562;19.540;2022-10-22T05:37:07;27.08;;;21.80;;
70150;SDS011;57517;43.562;19.540;2022-10-22T05:39:33;34.03;;;23.13;;
70150;SDS011;57517;43.562;19.540;2022-10-22T05:42:01;35.97;;;26.13;;
70150;SDS011;57517;43.562;19.540;2022-10-22T05:44:27;35.17;;;27.63;;
70150;SDS011;57517;43.562;19.540;2022-10-22T05:46:53;35.55;;;27.33;;
70150;SDS011;57517;43.562;19.540;2022-10-22T05:49:19;35.35;;;26.25;;
70150;SDS011;57517;43.562;19.540;2022-10-22T05:51:45;33.47;;;25.25;;
70150;SDS011;57517;43.562;19.540;2022-10-22T05:54:14;35.13;;;24.52;;
70150;SDS011;57517;43.562;19.540;2022-10-22T05:56:42;33.42;;;24.17;;
70150;SDS011;57517;43.562;19.540;2022-10-22T05:59:09;37.65;;;25.38;;
70150;SDS011;57517;43.562;19.540;2022-10-22T06:01:35;40.58;;;27.08;;
70150;SDS011;57517;43.562;19.540;2022-10-22T06:04:03;33.78;;;25.30;;
70150;SDS011;57517;43.562;19.540;2022-10-22T06:06:32;35.45;;;26.10;;
70150;SDS011;57517;43.562;19.540;2022-10-22T06:09:02;36.20;;;27.65;;
70150;SDS011;57517;43.562;19.540;2022-10-22T06:11:50;36.95;;;29.50;;
70150;SDS011;57517;43.562;19.540;2022-10-22T06:14:16;42.20;;;29.23;;
70150;SDS011;57517;43.562;19.540;2022-10-22T06:16:44;136.32;;;95.97;;
70150;SDS011;57517;43.562;19.540;2022-10-22T06:19:11;53.53;;;39.38;;
70150;SDS011;57517;43.562;19.540;2022-10-22T06:21:37;131.00;;;91.80;;
70150;SDS011;57517;43.562;19.540;2022-10-22T06:24:04;57.13;;;43.70;;
70150;SDS011;57517;43.562;19.540;2022-10-22T06:26:30;42.28;;;35.45;;
70150;SDS011;57517;43.562;19.540;2022-10-22T06:28:56;46.97;;;38.65;;
70150;SDS011;57517;43.562;19.540;2022-10-22T06:31:22;45.92;;;36.05;;
70150;SDS011;57517;43.562;19.540;2022-10-22T06:33:49;43.53;;;33.33;;
70150;SDS011;57517;43.562;19.540;2022-10-22T06:36:16;42.60;;;31.63;;
70150;SDS011;57517;43.562;19.540;2022-10-22T06:38:44;38.28;;;31.50;;
70150;SDS011;57517;43.562;19.540;2022-10-22T06:41:13;40.65;;;34.10;;
70150;SDS011;57517;43.562;19.540;2022-10-22T06:43:41;39.63;;;31.73;;
70150;SDS011;57517;43.562;19.540;2022-10-22T06:46:11;40.20;;;30.50;;
70150;SDS011;57517;43.562;19.540;2022-10-22T06:48:38;41.13;;;33.65;;
70150;SDS011;57517;43.562;19.540;2022-10-22T06:51:06;60.00;;;36.92;;
70150;SDS011;57517;43.562;19.540;2022-10-22T06:53:34;42.72;;;32.47;;
70150;SDS011;57517;43.562;19.540;2022-10-22T06:56:07;38.40;;;32.30;;
70150;SDS011;57517;43.562;19.540;2022-10-22T07:01:04;42.17;;;33.20;;
70150;SDS011;57517;43.562;19.540;2022-10-22T07:03:31;35.38;;;31.50;;
70150;SDS011;57517;43.562;19.540;2022-10-22T07:05:58;33.83;;;26.33;;
70150;SDS011;57517;43.562;19.540;2022-10-22T07:08:28;34.63;;;25.23;;
70150;SDS011;57517;43.562;19.540;2022-10-22T07:10:54;31.80;;;26.10;;
70150;SDS011;57517;43.562;19.540;2022-10-22T07:13:21;33.25;;;26.42;;
70150;SDS011;57517;43.562;19.540;2022-10-22T07:15:56;33.80;;;28.92;;
70150;SDS011;57517;43.562;19.540;2022-10-22T07:18:23;34.20;;;27.80;;
70150;SDS011;57517;43.562;19.540;2022-10-22T07:20:49;30.88;;;27.55;;
70150;SDS011;57517;43.562;19.540;2022-10-22T07:23:15;34.08;;;30.10;;
70150;SDS011;57517;43.562;19.540;2022-10-22T07:25:41;33.53;;;29.27;;
70150;SDS011;57517;43.562;19.540;2022-10-22T07:28:07;34.70;;;29.05;;
70150;SDS011;57517;43.562;19.540;2022-10-22T07:30:33;32.42;;;27.90;;
70150;SDS011;57517;43.562;19.540;2022-10-22T07:33:00;30.23;;;25.25;;
70150;SDS011;57517;43.562;19.540;2022-10-22T07:35:26;28.23;;;23.30;;
70150;SDS011;57517;43.562;19.540;2022-10-22T07:37:52;25.45;;;22.70;;
70150;SDS011;57517;43.562;19.540;2022-10-22T07:40:18;26.70;;;23.58;;
70150;SDS011;57517;43.562;19.540;2022-10-22T07:42:44;28.83;;;23.60;;
70150;SDS011;57517;43.562;19.540;2022-10-22T07:45:09;33.92;;;26.20;;
70150;SDS011;57517;43.562;19.540;2022-10-22T07:47:35;29.85;;;26.65;;
70150;SDS011;57517;43.562;19.540;2022-10-22T07:50:01;28.75;;;25.73;;
70150;SDS011;57517;43.562;19.540;2022-10-22T07:52:28;25.92;;;22.98;;
70150;SDS011;57517;43.562;19.540;2022-10-22T07:54:53;28.67;;;24.33;;
70150;SDS011;57517;43.562;19.540;2022-10-22T07:57:19;28.25;;;25.17;;
70150;SDS011;57517;43.562;19.540;2022-10-22T07:59:45;28.83;;;25.75;;
70150;SDS011;57517;43.562;19.540;2022-10-22T08:02:11;29.95;;;26.75;;
70150;SDS011;57517;43.562;19.540;2022-10-22T08:04:37;34.33;;;27.42;;
70150;SDS011;57517;43.562;19.540;2022-10-22T08:07:03;28.27;;;25.30;;
70150;SDS011;57517;43.562;19.540;2022-10-22T08:09:29;28.98;;;25.85;;
70150;SDS011;57517;43.562;19.540;2022-10-22T08:11:55;27.65;;;23.98;;
70150;SDS011;57517;43.562;19.540;2022-10-22T08:14:21;27.30;;;23.20;;
70150;SDS011;57517;43.562;19.540;2022-10-22T08:16:46;28.63;;;22.23;;
70150;SDS011;57517;43.562;19.540;2022-10-22T08:19:12;23.48;;;19.95;;
70150;SDS011;57517;43.562;19.540;2022-10-22T08:21:44;25.92;;;20.63;;
70150;SDS011;57517;43.562;19.540;2022-10-22T08:24:10;24.98;;;22.38;;
70150;SDS011;57517;43.562;19.540;2022-10-22T08:26:36;22.40;;;20.10;;
70150;SDS011;57517;43.562;19.540;2022-10-22T08:29:02;22.33;;;19.92;;
70150;SDS011;57517;43.562;19.540;2022-10-22T08:31:28;24.55;;;22.08;;
70150;SDS011;57517;43.562;19.540;2022-10-22T08:33:54;30.10;;;24.00;;
70150;SDS011;57517;43.562;19.540;2022-10-22T08:36:20;24.67;;;21.98;;
70150;SDS011;57517;43.562;19.540;2022-10-22T08:38:46;23.38;;;20.27;;
70150;SDS011;57517;43.562;19.540;2022-10-22T08:41:12;25.25;;;22.15;;
70150;SDS011;57517;43.562;19.540;2022-10-22T08:43:54;22.30;;;19.90;;
70150;SDS011;57517;43.562;19.540;2022-10-22T08:49:30;19.58;;;17.48;;
70150;SDS011;57517;43.562;19.540;2022-10-22T08:51:59;17.38;;;15.63;;
70150;SDS011;57517;43.562;19.540;2022-10-22T08:57:13;21.05;;;18.85;;
70150;SDS011;57517;43.562;19.540;2022-10-22T09:02:51;20.13;;;18.13;;
70150;SDS011;57517;43.562;19.540;2022-10-22T09:07:53;21.83;;;19.63;;
70150;SDS011;57517;43.562;19.540;2022-10-22T09:10:20;22.45;;;20.00;;
70150;SDS011;57517;43.562;19.540;2022-10-22T09:12:51;22.27;;;19.98;;
70150;SDS011;57517;43.562;19.540;2022-10-22T09:15:17;21.90;;;19.17;;
70150;SDS011;57517;43.562;19.540;2022-10-22T09:17:49;20.25;;;18.13;;
70150;SDS011;57517;43.562;19.540;2022-10-22T09:20:19;19.60;;;17.60;;
70150;SDS011;57517;43.562;19.540;2022-10-22T09:25:47;21.48;;;16.83;;
70150;SDS011;57517;43.562;19.540;2022-10-22T09:28:15;18.67;;;16.30;;
70150;SDS011;57517;43.562;19.540;2022-10-22T09:30:41;21.58;;;19.27;;
70150;SDS011;57517;43.562;19.540;2022-10-22T09:33:15;25.75;;;23.00;;
70150;SDS011;57517;43.562;19.540;2022-10-22T09:38:26;24.58;;;20.40;;
70150;SDS011;57517;43.562;19.540;2022-10-22T09:40:57;26.55;;;20.20;;
70150;SDS011;57517;43.562;19.540;2022-10-22T09:43:24;22.38;;;19.60;;
70150;SDS011;57517;43.562;19.540;2022-10-22T09:45:58;23.50;;;20.58;;
70150;SDS011;57517;43.562;19.540;2022-10-22T09:48:31;21.40;;;18.05;;
70150;SDS011;57517;43.562;19.540;2022-10-22T09:51:05;21.73;;;18.27;;
70150;SDS011;57517;43.562;19.540;2022-10-22T09:53:44;18.63;;;16.00;;
70150;SDS011;57517;43.562;19.540;2022-10-22T09:56:22;21.05;;;16.10;;
70150;SDS011;57517;43.562;19.540;2022-10-22T09:59:14;17.05;;;14.82;;
70150;SDS011;57517;43.562;19.540;2022-10-22T10:01:40;17.63;;;15.23;;
70150;SDS011;57517;43.562;19.540;2022-10-22T10:04:08;17.92;;;15.73;;
70150;SDS011;57517;43.562;19.540;2022-10-22T10:06:37;20.48;;;18.05;;
70150;SDS011;57517;43.562;19.540;2022-10-22T10:09:14;23.17;;;18.42;;
70150;SDS011;57517;43.562;19.540;2022-10-22T10:14:32;20.67;;;16.55;;
70150;SDS011;57517;43.562;19.540;2022-10-22T10:17:28;19.77;;;16.98;;
70150;SDS011;57517;43.562;19.540;2022-10-22T10:25:27;19.15;;;13.63;;
70150;SDS011;57517;43.562;19.540;2022-10-22T10:28:34;13.85;;;11.93;;
70150;SDS011;57517;43.562;19.540;2022-10-22T10:41:50;14.05;;;12.57;;
70150;SDS011;57517;43.562;19.540;2022-10-22T10:52:57;18.10;;;14.38;;
70150;SDS011;57517;43.562;19.540;2022-10-22T11:06:38;15.75;;;11.93;;
70150;SDS011;57517;43.562;19.540;2022-10-22T11:09:23;14.65;;;11.57;;
70150;SDS011;57517;43.562;19.540;2022-10-22T11:11:59;18.98;;;12.73;;
70150;SDS011;57517;43.562;19.540;2022-10-22T11:17:03;20.38;;;15.70;;
70150;SDS011;57517;43.562;19.540;2022-10-22T11:19:52;22.88;;;16.63;;
70150;SDS011;57517;43.562;19.540;2022-10-22T11:22:34;18.75;;;12.48;;
70150;SDS011;57517;43.562;19.540;2022-10-22T11:28:00;15.10;;;11.68;;
70150;SDS011;57517;43.562;19.540;2022-10-22T11:30:34;13.95;;;11.25;;
70150;SDS011;57517;43.562;19.540;2022-10-22T11:33:02;19.52;;;14.18;;
70150;SDS011;57517;43.562;19.540;2022-10-22T11:35:34;17.17;;;12.73;;
70150;SDS011;57517;43.562;19.540;2022-10-22T11:38:10;20.65;;;15.05;;
70150;SDS011;57517;43.562;19.540;2022-10-22T11:40:59;18.48;;;14.25;;
70150;SDS011;57517;43.562;19.540;2022-10-22T11:43:32;18.88;;;15.15;;
70150;SDS011;57517;43.562;19.540;2022-10-22T11:48:41;23.75;;;17.95;;
70150;SDS011;57517;43.562;19.540;2022-10-22T11:59:40;24.30;;;19.23;;
70150;SDS011;57517;43.562;19.540;2022-10-22T12:04:54;23.48;;;16.10;;
70150;SDS011;57517;43.562;19.540;2022-10-22T12:07:49;23.60;;;15.30;;
70150;SDS011;57517;43.562;19.540;2022-10-22T12:10:19;16.35;;;12.60;;
70150;SDS011;57517;43.562;19.540;2022-10-22T12:15:47;20.88;;;16.85;;
70150;SDS011;57517;43.562;19.540;2022-10-22T12:18:16;21.20;;;14.77;;
70150;SDS011;57517;43.562;19.540;2022-10-22T12:20:42;20.77;;;15.10;;
70150;SDS011;57517;43.562;19.540;2022-10-22T12:23:09;20.52;;;14.43;;
70150;SDS011;57517;43.562;19.540;2022-10-22T12:25:36;19.38;;;13.35;;
70150;SDS011;57517;43.562;19.540;2022-10-22T12:28:03;19.65;;;12.98;;
70150;SDS011;57517;43.562;19.540;2022-10-22T12:30:32;18.75;;;12.63;;
70150;SDS011;57517;43.562;19.540;2022-10-22T12:32:59;18.52;;;12.13;;
70150;SDS011;57517;43.562;19.540;2022-10-22T12:35:29;22.35;;;18.27;;
70150;SDS011;57517;43.562;19.540;2022-10-22T12:38:20;21.58;;;14.88;;
70150;SDS011;57517;43.562;19.540;2022-10-22T12:40:49;18.60;;;14.32;;
70150;SDS011;57517;43.562;19.540;2022-10-22T12:43:17;19.98;;;12.95;;
70150;SDS011;57517;43.562;19.540;2022-10-22T12:45:50;17.10;;;13.02;;
70150;SDS011;57517;43.562;19.540;2022-10-22T12:48:18;17.23;;;14.60;;
70150;SDS011;57517;43.562;19.540;2022-10-22T12:50:54;32.58;;;20.20;;
70150;SDS011;57517;43.562;19.540;2022-10-22T12:53:32;24.20;;;17.10;;
70150;SDS011;57517;43.562;19.540;2022-10-22T12:56:04;23.85;;;13.68;;
70150;SDS011;57517;43.562;19.540;2022-10-22T12:58:38;20.13;;;12.73;;
70150;SDS011;57517;43.562;19.540;2022-10-22T13:01:21;23.20;;;15.95;;
70150;SDS011;57517;43.562;19.540;2022-10-22T13:03:50;22.10;;;14.48;;
70150;SDS011;57517;43.562;19.540;2022-10-22T13:06:27;17.98;;;12.98;;
70150;SDS011;57517;43.562;19.540;2022-10-22T13:09:00;33.90;;;18.95;;
70150;SDS011;57517;43.562;19.540;2022-10-22T13:12:10;27.25;;;20.75;;
70150;SDS011;57517;43.562;19.540;2022-10-22T13:14:26;34.20;;;26.02;;
70150;SDS011;57517;43.562;19.540;2022-10-22T13:17:04;28.67;;;20.08;;
70150;SDS011;57517;43.562;19.540;2022-10-22T13:27:53;18.98;;;13.35;;
70150;SDS011;57517;43.562;19.540;2022-10-22T13:32:58;21.10;;;15.18;;
70150;SDS011;57517;43.562;19.540;2022-10-22T13:35:28;19.65;;;15.88;;
70150;SDS011;57517;43.562;19.540;2022-10-22T13:37:57;22.33;;;15.52;;
70150;SDS011;57517;43.562;19.540;2022-10-22T13:40:23;17.50;;;13.27;;
70150;SDS011;57517;43.562;19.540;2022-10-22T13:42:51;29.48;;;22.85;;
70150;SDS011;57517;43.562;19.540;2022-10-22T13:45:17;25.00;;;19.05;;
70150;SDS011;57517;43.562;19.540;2022-10-22T13:47:44;25.95;;;19.90;;
70150;SDS011;57517;43.562;19.540;2022-10-22T13:50:16;30.92;;;20.85;;
70150;SDS011;57517;43.562;19.540;2022-10-22T13:52:45;25.30;;;20.00;;
70150;SDS011;57517;43.562;19.540;2022-10-22T13:57:49;34.97;;;24.20;;
70150;SDS011;57517;43.562;19.540;2022-10-22T14:00:17;27.70;;;20.05;;
70150;SDS011;57517;43.562;19.540;2022-10-22T14:02:45;29.85;;;20.33;;
70150;SDS011;57517;43.562;19.540;2022-10-22T14:05:13;37.90;;;24.50;;
70150;SDS011;57517;43.562;19.540;2022-10-22T14:07:41;39.28;;;27.17;;
70150;SDS011;57517;43.562;19.540;2022-10-22T14:10:39;40.00;;;28.35;;
70150;SDS011;57517;43.562;19.540;2022-10-22T14:12:58;39.92;;;29.17;;
70150;SDS011;57517;43.562;19.540;2022-10-22T14:15:26;80.07;;;56.42;;
70150;SDS011;57517;43.562;19.540;2022-10-22T14:17:56;107.93;;;78.47;;
70150;SDS011;57517;43.562;19.540;2022-10-22T14:20:25;50.40;;;36.90;;
70150;SDS011;57517;43.562;19.540;2022-10-22T14:22:56;45.58;;;32.65;;
70150;SDS011;57517;43.562;19.540;2022-10-22T14:25:29;58.15;;;38.08;;
70150;SDS011;57517;43.562;19.540;2022-10-22T14:27:55;44.85;;;32.85;;
70150;SDS011;57517;43.562;19.540;2022-10-22T14:30:22;43.47;;;34.00;;
70150;SDS011;57517;43.562;19.540;2022-10-22T14:32:50;54.13;;;40.47;;
70150;SDS011;57517;43.562;19.540;2022-10-22T14:35:19;45.97;;;38.25;;
70150;SDS011;57517;43.562;19.540;2022-10-22T14:37:46;46.60;;;35.05;;
70150;SDS011;57517;43.562;19.540;2022-10-22T14:40:13;46.20;;;36.65;;
70150;SDS011;57517;43.562;19.540;2022-10-22T14:42:41;58.58;;;40.30;;
70150;SDS011;57517;43.562;19.540;2022-10-22T14:45:12;48.38;;;39.47;;
70150;SDS011;57517;43.562;19.540;2022-10-22T14:47:43;59.33;;;39.65;;
70150;SDS011;57517;43.562;19.540;2022-10-22T14:50:09;66.47;;;46.28;;
70150;SDS011;57517;43.562;19.540;2022-10-22T14:52:36;63.78;;;44.80;;
70150;SDS011;57517;43.562;19.540;2022-10-22T14:55:02;55.47;;;41.10;;
70150;SDS011;57517;43.562;19.540;2022-10-22T14:57:28;54.75;;;38.67;;
70150;SDS011;57517;43.562;19.540;2022-10-22T14:59:54;62.03;;;43.05;;
70150;SDS011;57517;43.562;19.540;2022-10-22T15:02:20;62.33;;;47.20;;
70150;SDS011;57517;43.562;19.540;2022-10-22T15:04:46;65.20;;;47.35;;
70150;SDS011;57517;43.562;19.540;2022-10-22T15:07:13;75.53;;;52.95;;
70150;SDS011;57517;43.562;19.540;2022-10-22T15:09:39;64.22;;;47.53;;
70150;SDS011;57517;43.562;19.540;2022-10-22T15:12:05;70.20;;;48.92;;
70150;SDS011;57517;43.562;19.540;2022-10-22T15:14:30;66.95;;;48.42;;
70150;SDS011;57517;43.562;19.540;2022-10-22T15:16:57;73.63;;;50.90;;
70150;SDS011;57517;43.562;19.540;2022-10-22T15:19:23;68.95;;;50.85;;
70150;SDS011;57517;43.562;19.540;2022-10-22T15:21:49;67.47;;;48.67;;
70150;SDS011;57517;43.562;19.540;2022-10-22T15:24:15;69.18;;;50.20;;
70150;SDS011;57517;43.562;19.540;2022-10-22T15:26:41;62.67;;;48.10;;
70150;SDS011;57517;43.562;19.540;2022-10-22T15:29:07;65.22;;;47.45;;
70150;SDS011;57517;43.562;19.540;2022-10-22T15:31:50;50.33;;;39.92;;
70150;SDS011;57517;43.562;19.540;2022-10-22T15:34:20;44.65;;;33.75;;
70150;SDS011;57517;43.562;19.540;2022-10-22T15:36:48;43.95;;;32.30;;
70150;SDS011;57517;43.562;19.540;2022-10-22T15:39:14;49.70;;;34.47;;
70150;SDS011;57517;43.562;19.540;2022-10-22T15:41:40;53.60;;;38.63;;
70150;SDS011;57517;43.562;19.540;2022-10-22T15:44:06;79.15;;;58.13;;
70150;SDS011;57517;43.562;19.540;2022-10-22T15:46:33;79.25;;;61.08;;
70150;SDS011;57517;43.562;19.540;2022-10-22T15:48:59;78.78;;;61.22;;
70150;SDS011;57517;43.562;19.540;2022-10-22T15:51:25;79.88;;;60.83;;
70150;SDS011;57517;43.562;19.540;2022-10-22T15:53:52;75.90;;;60.83;;
70150;SDS011;57517;43.562;19.540;2022-10-22T15:56:19;87.85;;;62.58;;
70150;SDS011;57517;43.562;19.540;2022-10-22T15:58:45;82.53;;;64.93;;
70150;SDS011;57517;43.562;19.540;2022-10-22T16:01:12;91.80;;;72.25;;
70150;SDS011;57517;43.562;19.540;2022-10-22T16:03:39;94.97;;;66.53;;
70150;SDS011;57517;43.562;19.540;2022-10-22T16:06:06;77.65;;;60.17;;
70150;SDS011;57517;43.562;19.540;2022-10-22T16:08:33;116.82;;;91.93;;
70150;SDS011;57517;43.562;19.540;2022-10-22T16:10:59;80.80;;;64.60;;
70150;SDS011;57517;43.562;19.540;2022-10-22T16:13:25;67.70;;;45.70;;
70150;SDS011;57517;43.562;19.540;2022-10-22T16:15:53;57.75;;;41.78;;
70150;SDS011;57517;43.562;19.540;2022-10-22T16:18:18;53.13;;;38.38;;
70150;SDS011;57517;43.562;19.540;2022-10-22T16:20:45;59.30;;;41.15;;
70150;SDS011;57517;43.562;19.540;2022-10-22T16:23:11;88.75;;;63.63;;
70150;SDS011;57517;43.562;19.540;2022-10-22T16:25:39;81.47;;;64.78;;
70150;SDS011;57517;43.562;19.540;2022-10-22T16:28:06;81.63;;;61.45;;
70150;SDS011;57517;43.562;19.540;2022-10-22T16:30:32;74.25;;;55.28;;
70150;SDS011;57517;43.562;19.540;2022-10-22T16:32:59;78.40;;;59.30;;